Time;durP1;ratioP1;P1;durP2;ratioP2;P2;SDS_P1;SDS_P2;PMS_P1;PMS_P2;Temp;Humidity;BMP_temperature;BMP_pressure;BME280_temperature;BME280_humidity;BME280_pressure;Samples;Min_cycle;Max_cycle;Signal;HPM_P1;HPM_P2
2023/07/14 00:00:08;;;;;;;9.60;7.53;;;;;;;;;;9986848;28;20049;-47
2023/07/14 00:05:03;;;;;;;9.73;6.72;;;;;;;;;;9992320;28;20058;-47
2023/07/14 00:09:55;;;;;;;7.05;6.18;;;;;;;;;;9974841;28;20047;-48
2023/07/14 00:14:47;;;;;;;6.85;6.13;;;;;;;;;;9992509;28;20057;-46
2023/07/14 00:19:39;;;;;;;9.98;7.30;;;;;;;;;;9991921;28;20042;-48
2023/07/14 00:24:32;;;;;;;9.82;6.38;;;;;;;;;;9992240;28;20042;-50
2023/07/14 00:29:33;;;;;;;6.65;5.95;;;;;;;;;;9991811;28;20047;-49
2023/07/14 00:34:25;;;;;;;6.68;5.55;;;;;;;;;;10006627;28;20048;-47
2023/07/14 00:39:17;;;;;;;8.23;6.22;;;;;;;;;;9991840;28;20053;-46
2023/07/14 00:44:13;;;;;;;7.45;6.28;;;;;;;;;;9991417;28;20096;-50
2023/07/14 00:49:12;;;;;;;7.88;6.20;;;;;;;;;;9936283;28;20049;-50
2023/07/14 00:54:04;;;;;;;8.07;5.75;;;;;;;;;;9973470;28;20047;-48
2023/07/14 00:58:57;;;;;;;6.82;6.20;;;;;;;;;;9988503;28;20125;-47
2023/07/14 01:03:55;;;;;;;6.93;6.25;;;;;;;;;;9956136;28;20050;-50
2023/07/14 01:08:53;;;;;;;9.35;6.68;;;;;;;;;;9972176;28;20130;-46
2023/07/14 01:13:45;;;;;;;8.48;6.53;;;;;;;;;;9990269;28;20368;-49
2023/07/14 01:18:38;;;;;;;7.03;5.93;;;;;;;;;;9973466;28;20046;-49
2023/07/14 01:23:37;;;;;;;7.25;5.82;;;;;;;;;;9956429;28;20046;-47
2023/07/14 01:28:41;;;;;;;7.15;5.70;;;;;;;;;;9987470;28;20066;-46
2023/07/14 01:33:33;;;;;;;5.30;4.80;;;;;;;;;;9989337;28;20039;-48
2023/07/14 01:38:26;;;;;;;7.63;6.53;;;;;;;;;;9990949;28;20121;-49
2023/07/14 01:43:18;;;;;;;7.20;6.32;;;;;;;;;;9973452;28;20423;-47
2023/07/14 01:48:13;;;;;;;7.47;6.10;;;;;;;;;;9988943;28;20494;-50
2023/07/14 01:53:10;;;;;;;6.53;5.93;;;;;;;;;;9970963;28;20043;-47
2023/07/14 01:58:10;;;;;;;6.38;5.78;;;;;;;;;;9971099;28;20376;-47
2023/07/14 02:03:04;;;;;;;6.63;5.97;;;;;;;;;;9970962;28;20038;-51
2023/07/14 02:08:03;;;;;;;7.70;5.70;;;;;;;;;;9971334;28;20053;-48
2023/07/14 02:12:55;;;;;;;7.38;5.70;;;;;;;;;;9970675;28;20043;-50
2023/07/14 02:17:48;;;;;;;7.43;5.78;;;;;;;;;;9970872;28;20042;-49
2023/07/14 02:22:41;;;;;;;7.15;5.50;;;;;;;;;;9969565;28;20149;-50
2023/07/14 02:27:33;;;;;;;7.45;5.47;;;;;;;;;;9986371;28;20078;-47
2023/07/14 02:32:29;;;;;;;6.60;5.88;;;;;;;;;;9987769;28;20030;-46
2023/07/14 02:38:00;;;;;;;6.03;5.53;;;;;;;;;;9969921;28;20043;-46
2023/07/14 02:42:52;;;;;;;6.30;5.70;;;;;;;;;;9987152;28;20494;-48
2023/07/14 02:47:45;;;;;;;20.25;6.82;;;;;;;;;;9989064;28;20050;-47
2023/07/14 02:52:37;;;;;;;6.18;5.47;;;;;;;;;;9970429;28;20568;-46
2023/07/14 02:57:29;;;;;;;7.35;6.00;;;;;;;;;;9969139;28;20537;-45
2023/07/14 03:02:21;;;;;;;6.18;5.57;;;;;;;;;;9986606;28;20042;-49
2023/07/14 03:07:16;;;;;;;6.35;5.75;;;;;;;;;;9986908;28;20042;-46
2023/07/14 03:12:08;;;;;;;6.25;5.65;;;;;;;;;;9985287;28;20461;-47
2023/07/14 03:17:00;;;;;;;6.25;5.45;;;;;;;;;;9969506;28;20416;-46
2023/07/14 03:21:52;;;;;;;6.95;5.80;;;;;;;;;;9987348;28;20058;-46
2023/07/14 03:26:44;;;;;;;5.90;5.32;;;;;;;;;;9970512;28;20050;-47
2023/07/14 03:31:36;;;;;;;6.22;5.55;;;;;;;;;;9967761;28;20141;-47
2023/07/14 03:36:28;;;;;;;5.95;5.45;;;;;;;;;;9985109;28;20465;-47
2023/07/14 03:41:20;;;;;;;6.05;5.45;;;;;;;;;;9983038;28;20046;-46
2023/07/14 03:46:13;;;;;;;5.72;5.28;;;;;;;;;;9985576;28;20054;-46
2023/07/14 03:51:06;;;;;;;6.15;5.55;;;;;;;;;;9983637;28;20076;-48
2023/07/14 03:55:58;;;;;;;9.63;5.32;;;;;;;;;;9984642;28;20042;-47
2023/07/14 04:00:50;;;;;;;8.90;5.65;;;;;;;;;;9985110;28;20061;-49
2023/07/14 04:05:46;;;;;;;5.82;5.32;;;;;;;;;;9993818;28;20046;-47
2023/07/14 04:10:38;;;;;;;6.07;5.57;;;;;;;;;;9984416;28;20137;-47
2023/07/14 04:15:30;;;;;;;6.07;5.47;;;;;;;;;;9967596;28;20086;-47
2023/07/14 04:20:22;;;;;;;6.45;5.85;;;;;;;;;;9985632;28;20137;-47
2023/07/14 04:25:14;;;;;;;5.85;5.45;;;;;;;;;;9986831;28;20046;-48
2023/07/14 04:30:08;;;;;;;5.57;5.07;;;;;;;;;;9984632;28;20051;-47
2023/07/14 04:35:00;;;;;;;6.15;5.65;;;;;;;;;;9985531;28;20357;-46
2023/07/14 04:39:52;;;;;;;5.93;4.85;;;;;;;;;;9984380;28;20042;-48
2023/07/14 04:44:44;;;;;;;5.80;5.25;;;;;;;;;;9984292;28;20789;-45
2023/07/14 04:49:37;;;;;;;6.28;5.68;;;;;;;;;;9989119;28;20113;-47
2023/07/14 04:54:29;;;;;;;5.75;5.28;;;;;;;;;;9991127;28;20081;-47
2023/07/14 04:59:21;;;;;;;5.75;5.22;;;;;;;;;;9992640;28;20060;-47
2023/07/14 05:04:13;;;;;;;8.32;5.00;;;;;;;;;;9988912;28;20077;-46
2023/07/14 05:09:04;;;;;;;5.97;5.47;;;;;;;;;;9988104;28;20058;-46
2023/07/14 05:13:56;;;;;;;5.40;4.95;;;;;;;;;;9990485;28;20061;-46
2023/07/14 05:18:48;;;;;;;6.40;5.50;;;;;;;;;;9984693;28;20100;-45
2023/07/14 05:23:41;;;;;;;5.72;5.22;;;;;;;;;;9982796;28;20078;-42
2023/07/14 05:28:33;;;;;;;7.40;4.97;;;;;;;;;;9978530;28;20046;-39
2023/07/14 05:33:25;;;;;;;6.05;5.53;;;;;;;;;;9968883;28;20070;-42
2023/07/14 05:38:17;;;;;;;6.15;5.57;;;;;;;;;;9985662;28;20129;-41
2023/07/14 05:43:09;;;;;;;5.85;5.10;;;;;;;;;;9988307;28;20691;-47
2023/07/14 05:48:01;;;;;;;5.38;4.88;;;;;;;;;;9987070;28;20051;-45
2023/07/14 05:52:53;;;;;;;6.03;5.40;;;;;;;;;;9986493;28;20047;-48
2023/07/14 05:57:45;;;;;;;6.60;5.15;;;;;;;;;;9985091;28;20057;-47
2023/07/14 06:02:37;;;;;;;6.28;5.68;;;;;;;;;;9982926;28;20050;-48
2023/07/14 06:07:31;;;;;;;5.63;4.80;;;;;;;;;;9984931;28;20096;-47
2023/07/14 06:12:23;;;;;;;5.60;4.93;;;;;;;;;;9988249;28;20058;-47
2023/07/14 06:17:15;;;;;;;6.20;5.45;;;;;;;;;;9987947;28;20400;-46
2023/07/14 06:22:07;;;;;;;8.60;5.07;;;;;;;;;;9987371;28;20054;-44
2023/07/14 06:26:58;;;;;;;7.72;5.65;;;;;;;;;;9987826;28;20564;-47
2023/07/14 06:31:50;;;;;;;7.78;5.95;;;;;;;;;;9986920;28;20042;-47
2023/07/14 06:36:42;;;;;;;7.55;5.18;;;;;;;;;;9984681;28;20070;-46
2023/07/14 06:41:34;;;;;;;8.50;5.53;;;;;;;;;;9987252;28;20050;-46
2023/07/14 06:46:26;;;;;;;7.30;6.60;;;;;;;;;;9985844;28;20084;-43
2023/07/14 06:51:18;;;;;;;8.40;6.00;;;;;;;;;;9986988;28;20539;-48
2023/07/14 06:56:10;;;;;;;7.32;6.10;;;;;;;;;;9987063;28;20133;-46
2023/07/14 07:01:03;;;;;;;7.00;6.30;;;;;;;;;;9987523;28;20050;-47
2023/07/14 07:05:56;;;;;;;6.63;6.00;;;;;;;;;;9987214;28;20701;-46
2023/07/14 07:10:48;;;;;;;7.68;6.88;;;;;;;;;;9986735;28;20050;-46
2023/07/14 07:15:40;;;;;;;8.07;7.15;;;;;;;;;;9986652;28;20043;-46
2023/07/14 07:20:35;;;;;;;10.13;7.88;;;;;;;;;;9986039;28;20050;-46
2023/07/14 07:25:27;;;;;;;9.27;7.68;;;;;;;;;;9986813;28;20092;-45
2023/07/14 07:30:18;;;;;;;8.25;7.45;;;;;;;;;;9985493;28;20104;-45
2023/07/14 07:35:10;;;;;;;12.77;8.07;;;;;;;;;;9986819;28;20046;-46
2023/07/14 07:40:03;;;;;;;10.13;8.60;;;;;;;;;;9986696;28;20042;-48
2023/07/14 07:44:55;;;;;;;13.48;8.95;;;;;;;;;;9985078;28;20042;-47
2023/07/14 07:49:47;;;;;;;11.13;10.10;;;;;;;;;;9984248;28;20042;-46
2023/07/14 07:54:39;;;;;;;14.52;10.60;;;;;;;;;;9986766;28;20047;-47
2023/07/14 07:59:31;;;;;;;13.38;11.90;;;;;;;;;;9981650;28;20046;-46
2023/07/14 08:04:23;;;;;;;16.08;12.02;;;;;;;;;;9984981;28;20377;-49
2023/07/14 08:09:15;;;;;;;14.02;10.85;;;;;;;;;;9983799;28;20047;-48
2023/07/14 08:14:17;;;;;;;11.38;10.20;;;;;;;;;;9983696;28;20046;-46
2023/07/14 08:19:10;;;;;;;11.75;10.50;;;;;;;;;;9985253;28;20050;-47
2023/07/14 08:24:02;;;;;;;11.52;10.43;;;;;;;;;;9993172;28;20046;-44
2023/07/14 08:28:55;;;;;;;14.43;11.73;;;;;;;;;;9991855;28;20134;-46
2023/07/14 08:33:47;;;;;;;13.98;11.27;;;;;;;;;;9992275;28;20400;-47
2023/07/14 08:38:40;;;;;;;12.52;11.30;;;;;;;;;;9991032;28;20050;-47
2023/07/14 08:43:47;;;;;;;13.27;10.82;;;;;;;;;;9990716;28;20042;-47
2023/07/14 08:48:42;;;;;;;13.32;11.93;;;;;;;;;;9990554;28;20038;-47
2023/07/14 08:53:34;;;;;;;12.55;11.35;;;;;;;;;;9973154;28;20078;-48
2023/07/14 08:58:27;;;;;;;12.95;11.73;;;;;;;;;;9990341;28;20424;-44
2023/07/14 09:03:31;;;;;;;13.68;12.27;;;;;;;;;;9972961;28;20915;-46
2023/07/14 09:08:27;;;;;;;15.70;11.63;;;;;;;;;;9990738;28;20085;-47
2023/07/14 09:13:31;;;;;;;11.70;10.50;;;;;;;;;;9988969;28;20046;-48
2023/07/14 09:18:44;;;;;;;12.02;10.93;;;;;;;;;;9990314;28;20089;-49
2023/07/14 09:23:51;;;;;;;11.13;10.10;;;;;;;;;;9991122;28;20105;-48
2023/07/14 09:28:46;;;;;;;12.75;11.55;;;;;;;;;;9990787;28;20444;-48
2023/07/14 09:33:47;;;;;;;12.10;10.85;;;;;;;;;;9988209;28;20350;-47
2023/07/14 09:38:55;;;;;;;12.15;10.95;;;;;;;;;;9972138;28;20133;-47
2023/07/14 09:43:47;;;;;;;11.53;10.47;;;;;;;;;;9972051;28;20125;-47
2023/07/14 09:48:46;;;;;;;12.40;10.45;;;;;;;;;;9987787;28;20101;-47
2023/07/14 09:53:39;;;;;;;13.77;11.43;;;;;;;;;;9988557;28;20097;-47
2023/07/14 09:58:32;;;;;;;10.65;9.60;;;;;;;;;;9987733;28;20038;-46
2023/07/14 10:03:30;;;;;;;11.57;10.48;;;;;;;;;;9987298;28;20034;-48
2023/07/14 10:08:50;;;;;;;14.55;10.77;;;;;;;;;;9987814;28;20066;-47
2023/07/14 10:13:49;;;;;;;14.02;10.55;;;;;;;;;;9987769;28;20042;-47
2023/07/14 10:18:55;;;;;;;10.80;9.55;;;;;;;;;;9970003;28;20054;-47
2023/07/14 10:24:05;;;;;;;11.55;10.20;;;;;;;;;;9989297;28;20046;-46
2023/07/14 10:28:57;;;;;;;12.88;11.13;;;;;;;;;;9989014;28;20109;-47
2023/07/14 10:34:03;;;;;;;12.35;10.57;;;;;;;;;;9988334;28;20054;-46
2023/07/14 10:39:21;;;;;;;13.60;10.93;;;;;;;;;;9987878;28;20069;-47
2023/07/14 10:44:31;;;;;;;10.98;9.15;;;;;;;;;;9969322;28;20473;-47
2023/07/14 10:49:27;;;;;;;10.13;9.13;;;;;;;;;;9986850;28;20093;-47
2023/07/14 10:54:41;;;;;;;11.65;9.82;;;;;;;;;;9968628;28;20064;-52
2023/07/14 10:59:54;;;;;;;10.32;9.32;;;;;;;;;;9985338;28;20053;-47
2023/07/14 11:04:54;;;;;;;17.08;9.30;;;;;;;;;;9968079;28;20602;-49
2023/07/14 11:09:50;;;;;;;10.35;9.25;;;;;;;;;;9970238;28;20050;-45
2023/07/14 11:14:51;;;;;;;11.40;9.85;;;;;;;;;;9968486;28;20440;-47
2023/07/14 11:20:08;;;;;;;10.23;9.23;;;;;;;;;;9984271;28;20495;-50
2023/07/14 11:25:13;;;;;;;10.50;9.32;;;;;;;;;;9985779;28;20511;-46
2023/07/14 11:30:14;;;;;;;9.13;8.23;;;;;;;;;;9986536;28;20108;-47
2023/07/14 11:35:16;;;;;;;9.25;8.40;;;;;;;;;;10000079;28;20093;-45
2023/07/14 11:40:19;;;;;;;9.68;8.45;;;;;;;;;;9968422;28;20046;-46
2023/07/14 11:45:16;;;;;;;9.43;8.55;;;;;;;;;;9987011;28;20042;-47
2023/07/14 11:50:17;;;;;;;9.88;8.90;;;;;;;;;;10000601;28;20042;-49
2023/07/14 11:55:30;;;;;;;12.60;8.20;;;;;;;;;;9986433;28;20039;-47
2023/07/14 12:00:24;;;;;;;9.80;8.85;;;;;;;;;;9992242;28;20429;-46
2023/07/14 12:05:19;;;;;;;9.18;7.78;;;;;;;;;;10005888;28;20047;-48
2023/07/14 12:10:15;;;;;;;9.82;8.02;;;;;;;;;;9991749;28;20050;-49
2023/07/14 12:15:45;;;;;;;9.65;8.68;;;;;;;;;;9990671;28;20900;-44
2023/07/14 12:20:40;;;;;;;10.20;8.43;;;;;;;;;;9992838;28;20141;-47
2023/07/14 12:25:39;;;;;;;8.63;7.78;;;;;;;;;;9992270;28;20695;-47
2023/07/14 12:30:31;;;;;;;8.85;8.00;;;;;;;;;;9990325;28;20105;-48
2023/07/14 12:35:26;;;;;;;8.57;7.78;;;;;;;;;;9991734;28;20046;-46
2023/07/14 12:40:23;;;;;;;11.38;8.25;;;;;;;;;;9989885;28;20407;-48
2023/07/14 12:45:19;;;;;;;11.03;9.17;;;;;;;;;;9991906;28;20109;-46
2023/07/14 12:50:21;;;;;;;8.50;7.70;;;;;;;;;;9991605;28;20062;-48
2023/07/14 12:55:16;;;;;;;9.45;7.55;;;;;;;;;;9952706;28;20035;-47
2023/07/14 13:00:23;;;;;;;9.43;8.43;;;;;;;;;;9989954;28;20092;-47
2023/07/14 13:05:16;;;;;;;10.57;9.27;;;;;;;;;;9991492;28;20085;-46
2023/07/14 13:10:24;;;;;;;10.77;8.57;;;;;;;;;;9987755;28;20054;-47
2023/07/14 13:15:17;;;;;;;12.20;8.75;;;;;;;;;;9989834;28;20074;-47
2023/07/14 13:20:28;;;;;;;10.15;9.02;;;;;;;;;;9971428;28;20372;-47
2023/07/14 13:25:20;;;;;;;8.52;7.75;;;;;;;;;;9990494;28;20039;-46
2023/07/14 13:30:30;;;;;;;9.07;8.15;;;;;;;;;;9990298;28;20053;-48
2023/07/14 13:35:24;;;;;;;9.13;7.82;;;;;;;;;;9989545;28;20531;-46
2023/07/14 13:40:21;;;;;;;8.48;7.68;;;;;;;;;;9988943;28;20064;-49
2023/07/14 13:45:21;;;;;;;7.97;7.25;;;;;;;;;;9989351;28;20472;-47
2023/07/14 13:50:14;;;;;;;8.82;8.02;;;;;;;;;;9988681;28;20053;-48
2023/07/14 13:55:16;;;;;;;8.93;8.02;;;;;;;;;;9989835;28;20046;-47
2023/07/14 14:00:14;;;;;;;8.10;7.30;;;;;;;;;;9987193;28;20050;-46
2023/07/14 14:05:18;;;;;;;10.10;8.02;;;;;;;;;;9988428;28;20051;-46
2023/07/14 14:10:12;;;;;;;9.20;8.18;;;;;;;;;;9989376;28;20072;-46
2023/07/14 14:15:05;;;;;;;9.88;8.35;;;;;;;;;;9987873;28;20432;-48
2023/07/14 14:19:58;;;;;;;8.10;7.30;;;;;;;;;;9988577;28;20046;-46
2023/07/14 14:24:50;;;;;;;7.70;5.90;;;;;;;;;;9972303;28;20046;-47
2023/07/14 14:29:42;;;;;;;8.10;7.40;;;;;;;;;;9987056;28;20089;-46
2023/07/14 14:34:34;;;;;;;7.60;6.90;;;;;;;;;;9987349;28;20042;-48
2023/07/14 14:39:26;;;;;;;8.07;7.32;;;;;;;;;;9988497;28;20050;-43
2023/07/14 14:44:21;;;;;;;8.30;6.82;;;;;;;;;;9988337;28;20126;-47
2023/07/14 14:49:15;;;;;;;8.80;7.85;;;;;;;;;;9986865;28;20053;-47
2023/07/14 14:54:07;;;;;;;8.68;7.82;;;;;;;;;;9986759;28;20034;-47
2023/07/14 14:59:16;;;;;;;8.93;8.00;;;;;;;;;;9986377;28;20057;-46
2023/07/14 15:04:24;;;;;;;13.80;8.68;;;;;;;;;;9986691;28;20133;-46
2023/07/14 15:09:16;;;;;;;8.63;7.30;;;;;;;;;;9987480;28;20113;-46
2023/07/14 15:14:26;;;;;;;8.52;7.72;;;;;;;;;;9985003;28;20109;-48
2023/07/14 15:19:18;;;;;;;7.88;7.15;;;;;;;;;;9985200;28;20073;-47
2023/07/14 15:24:10;;;;;;;9.57;6.85;;;;;;;;;;9985705;28;20038;-47
2023/07/14 15:29:02;;;;;;;9.25;7.60;;;;;;;;;;9987195;28;20057;-47
2023/07/14 15:33:57;;;;;;;8.23;7.43;;;;;;;;;;9985490;28;20125;-46
2023/07/14 15:38:51;;;;;;;8.13;7.32;;;;;;;;;;9985048;28;20046;-47
2023/07/14 15:43:47;;;;;;;8.40;7.68;;;;;;;;;;9982063;28;20054;-46
2023/07/14 15:48:41;;;;;;;8.57;6.75;;;;;;;;;;9980411;28;20476;-46
2023/07/14 15:53:38;;;;;;;7.57;6.90;;;;;;;;;;9978622;28;20047;-45
2023/07/14 15:58:30;;;;;;;9.02;7.95;;;;;;;;;;9962360;28;20038;-45
2023/07/14 16:03:22;;;;;;;9.43;8.43;;;;;;;;;;9980095;28;20043;-44
2023/07/14 16:08:28;;;;;;;10.10;6.10;;;;;;;;;;9980678;28;20070;-48
2023/07/14 16:13:21;;;;;;;7.65;6.85;;;;;;;;;;9967397;28;20050;-46
2023/07/14 16:18:13;;;;;;;7.80;6.53;;;;;;;;;;9983888;28;20362;-44
2023/07/14 16:23:06;;;;;;;10.65;6.75;;;;;;;;;;9965451;28;20153;-44
2023/07/14 16:27:58;;;;;;;12.02;8.10;;;;;;;;;;9979863;28;20046;-44
2023/07/14 16:32:50;;;;;;;7.75;6.45;;;;;;;;;;9990801;28;20042;-45
2023/07/14 16:37:46;;;;;;;7.10;6.40;;;;;;;;;;9987732;28;20349;-48
2023/07/14 16:42:38;;;;;;;7.00;6.22;;;;;;;;;;10004235;28;20858;-46
2023/07/14 16:47:30;;;;;;;9.60;6.68;;;;;;;;;;10002330;28;20050;-44
2023/07/14 16:52:24;;;;;;;7.80;6.50;;;;;;;;;;9992002;28;20042;-46
2023/07/14 16:57:27;;;;;;;11.65;6.28;;;;;;;;;;9979758;28;20047;-47
2023/07/14 17:02:20;;;;;;;7.22;6.53;;;;;;;;;;9997019;28;20050;-47
2023/07/14 17:07:12;;;;;;;8.90;7.28;;;;;;;;;;10009192;28;20039;-46
2023/07/14 17:12:07;;;;;;;8.20;6.75;;;;;;;;;;9987382;28;20053;-48
2023/07/14 17:17:00;;;;;;;7.13;5.80;;;;;;;;;;9994055;28;20125;-47
2023/07/14 17:22:01;;;;;;;6.55;5.82;;;;;;;;;;9991897;28;20058;-48
2023/07/14 17:26:53;;;;;;;6.45;5.20;;;;;;;;;;10003473;28;20068;-46
2023/07/14 17:31:46;;;;;;;6.38;5.50;;;;;;;;;;9992185;28;20125;-48
2023/07/14 17:36:39;;;;;;;8.32;6.22;;;;;;;;;;10003487;28;20074;-45
2023/07/14 17:41:31;;;;;;;6.88;5.65;;;;;;;;;;9994631;28;20104;-47
2023/07/14 17:46:26;;;;;;;7.82;5.80;;;;;;;;;;10004671;28;20038;-49
2023/07/14 17:51:18;;;;;;;7.68;5.72;;;;;;;;;;9997790;28;20539;-48
2023/07/14 17:56:10;;;;;;;7.00;4.90;;;;;;;;;;10005602;28;20084;-48
2023/07/14 18:01:03;;;;;;;8.50;5.93;;;;;;;;;;9985465;28;20388;-45
2023/07/14 18:05:57;;;;;;;8.73;4.95;;;;;;;;;;9995871;28;20034;-47
2023/07/14 18:10:53;;;;;;;5.53;5.03;;;;;;;;;;9994231;28;20073;-47
2023/07/14 18:15:45;;;;;;;10.90;5.03;;;;;;;;;;9986163;28;20100;-46
2023/07/14 18:20:37;;;;;;;6.25;5.22;;;;;;;;;;10001732;28;20077;-46
2023/07/14 18:25:29;;;;;;;9.20;5.00;;;;;;;;;;10002360;28;20077;-48
2023/07/14 18:30:27;;;;;;;6.68;5.47;;;;;;;;;;9997474;28;20047;-47
2023/07/14 18:35:28;;;;;;;6.88;5.75;;;;;;;;;;9999441;28;20125;-48
2023/07/14 18:40:25;;;;;;;8.95;6.45;;;;;;;;;;9985985;28;20049;-46
2023/07/14 18:45:23;;;;;;;6.13;4.97;;;;;;;;;;9984658;28;20120;-48
2023/07/14 18:50:15;;;;;;;6.68;5.68;;;;;;;;;;9986020;28;20060;-48
2023/07/14 18:55:20;;;;;;;6.30;4.63;;;;;;;;;;9985184;28;20093;-43
2023/07/14 19:00:20;;;;;;;8.63;4.90;;;;;;;;;;9983466;28;20069;-47
2023/07/14 19:05:12;;;;;;;5.57;5.00;;;;;;;;;;9986623;28;20038;-45
2023/07/14 19:10:05;;;;;;;6.32;4.97;;;;;;;;;;9985154;28;20058;-44
2023/07/14 19:14:57;;;;;;;6.07;5.47;;;;;;;;;;9985011;28;20161;-47
2023/07/14 19:19:51;;;;;;;5.88;5.35;;;;;;;;;;9984927;28;20047;-48
2023/07/14 19:24:45;;;;;;;5.50;4.97;;;;;;;;;;9978878;28;20420;-46
2023/07/14 19:29:38;;;;;;;8.40;5.05;;;;;;;;;;9967260;28;20057;-47
2023/07/14 19:34:31;;;;;;;5.93;5.30;;;;;;;;;;9980678;28;20424;-46
2023/07/14 19:39:23;;;;;;;8.88;5.47;;;;;;;;;;9983720;28;20046;-46
2023/07/14 19:44:15;;;;;;;7.00;5.20;;;;;;;;;;9982633;28;20548;-46
2023/07/14 19:49:07;;;;;;;4.90;4.47;;;;;;;;;;9985852;28;20074;-47
2023/07/14 19:54:01;;;;;;;8.32;5.20;;;;;;;;;;9985597;28;20089;-46
2023/07/14 19:58:54;;;;;;;5.40;4.90;;;;;;;;;;9984301;28;20046;-46
2023/07/14 20:03:46;;;;;;;8.45;5.90;;;;;;;;;;9982072;28;20050;-47
2023/07/14 20:08:42;;;;;;;6.50;5.07;;;;;;;;;;9985835;28;20065;-48
2023/07/14 20:13:34;;;;;;;5.82;4.72;;;;;;;;;;9984774;28;20101;-46
2023/07/14 20:18:29;;;;;;;7.18;4.90;;;;;;;;;;9991356;28;20046;-47
2023/07/14 20:23:23;;;;;;;6.75;5.88;;;;;;;;;;9992758;28;20046;-45
2023/07/14 20:28:17;;;;;;;8.95;5.35;;;;;;;;;;9992013;28;20078;-47
2023/07/14 20:33:11;;;;;;;4.80;4.40;;;;;;;;;;9994228;28;20053;-46
2023/07/14 20:38:12;;;;;;;6.13;4.97;;;;;;;;;;10007275;28;20142;-46
2023/07/14 20:43:14;;;;;;;5.50;4.70;;;;;;;;;;9991716;28;20530;-47
2023/07/14 20:48:10;;;;;;;4.93;4.53;;;;;;;;;;9992263;28;20057;-46
2023/07/14 20:53:08;;;;;;;5.35;4.65;;;;;;;;;;9991646;28;20042;-47
2023/07/14 20:58:02;;;;;;;4.95;4.50;;;;;;;;;;9974461;28;20078;-47
2023/07/14 21:02:54;;;;;;;5.32;4.82;;;;;;;;;;9973680;28;20073;-47
2023/07/14 21:07:46;;;;;;;6.75;5.10;;;;;;;;;;9990454;28;20046;-49
2023/07/14 21:12:38;;;;;;;8.27;5.50;;;;;;;;;;9992928;28;20559;-46
2023/07/14 21:17:30;;;;;;;10.45;5.03;;;;;;;;;;9991119;28;20077;-46
2023/07/14 21:22:22;;;;;;;5.78;4.22;;;;;;;;;;9989504;28;20105;-46
2023/07/14 21:27:17;;;;;;;6.75;4.72;;;;;;;;;;9988459;28;20055;-46
2023/07/14 21:32:20;;;;;;;6.78;6.00;;;;;;;;;;9989650;28;20129;-47
2023/07/14 21:37:12;;;;;;;5.90;4.30;;;;;;;;;;9973706;28;20053;-47
2023/07/14 21:42:04;;;;;;;8.30;4.97;;;;;;;;;;9989891;28;20077;-46
2023/07/14 21:46:56;;;;;;;4.95;4.03;;;;;;;;;;9989989;28;20374;-47
2023/07/14 21:51:56;;;;;;;5.57;4.80;;;;;;;;;;9991545;28;20049;-46
2023/07/14 21:56:48;;;;;;;5.30;4.80;;;;;;;;;;9990584;28;20055;-46
2023/07/14 22:01:41;;;;;;;6.22;5.28;;;;;;;;;;9987715;28;20061;-47
2023/07/14 22:06:33;;;;;;;5.03;4.60;;;;;;;;;;9971884;28;20523;-48
2023/07/14 22:11:25;;;;;;;4.40;4.00;;;;;;;;;;9987209;28;20335;-47
2023/07/14 22:16:18;;;;;;;6.47;5.00;;;;;;;;;;9970396;28;20499;-47
2023/07/14 22:21:21;;;;;;;5.85;5.13;;;;;;;;;;9987454;28;20053;-47
2023/07/14 22:26:17;;;;;;;4.82;4.38;;;;;;;;;;9969243;28;20058;-46
2023/07/14 22:31:25;;;;;;;6.22;4.28;;;;;;;;;;9972728;28;20108;-47
2023/07/14 22:36:20;;;;;;;7.07;5.43;;;;;;;;;;9977016;28;20108;-47
2023/07/14 22:41:21;;;;;;;6.63;4.80;;;;;;;;;;9967736;28;20476;-47
2023/07/14 22:46:13;;;;;;;5.20;4.20;;;;;;;;;;9981756;28;20046;-46
2023/07/14 22:51:16;;;;;;;15.90;4.97;;;;;;;;;;9978324;28;20044;-46
2023/07/14 22:56:13;;;;;;;11.65;5.25;;;;;;;;;;9983984;28;20054;-46
2023/07/14 23:01:11;;;;;;;20.87;6.83;;;;;;;;;;9981547;28;20053;-46
2023/07/14 23:06:15;;;;;;;16.23;6.95;;;;;;;;;;9970361;28;20122;-46
2023/07/14 23:11:13;;;;;;;15.55;6.70;;;;;;;;;;9979605;28;20058;-44
2023/07/14 23:16:05;;;;;;;14.65;6.18;;;;;;;;;;9966562;28;20129;-47
2023/07/14 23:20:59;;;;;;;13.20;6.60;;;;;;;;;;9965477;28;20038;-46
2023/07/14 23:25:51;;;;;;;17.98;6.50;;;;;;;;;;9987769;28;20134;-44
2023/07/14 23:30:49;;;;;;;9.82;6.30;;;;;;;;;;9986602;28;20050;-43
2023/07/14 23:35:43;;;;;;;12.30;6.35;;;;;;;;;;9984198;28;20069;-43
2023/07/14 23:40:35;;;;;;;12.52;6.88;;;;;;;;;;9982682;28;20133;-44
2023/07/14 23:45:30;;;;;;;12.07;6.40;;;;;;;;;;9982610;28;20038;-44
2023/07/14 23:50:24;;;;;;;13.32;6.75;;;;;;;;;;9983464;28;20093;-45
2023/07/14 23:55:23;;;;;;;18.50;6.47;;;;;;;;;;9973258;28;20093;-46
